sensor_id;sensor_type;location;lat;lon;timestamp;pressure;altitude;pressure_sealevel;temperature;humidity
46642;BME280;32370;41.864;-88.124;2023-04-28T00:00:37;98389.47;;;15.60;27.88
46642;BME280;32370;41.864;-88.124;2023-04-28T00:03:05;98397.89;;;15.37;27.46
46642;BME280;32370;41.864;-88.124;2023-04-28T00:05:32;98392.72;;;15.00;27.98
46642;BME280;32370;41.864;-88.124;2023-04-28T00:08:00;98390.40;;;14.96;28.08
46642;BME280;32370;41.864;-88.124;2023-04-28T00:10:29;98389.58;;;14.96;27.90
46642;BME280;32370;41.864;-88.124;2023-04-28T00:12:58;98389.48;;;15.15;28.64
46642;BME280;32370;41.864;-88.124;2023-04-28T00:15:26;98392.71;;;15.13;28.19
46642;BME280;32370;41.864;-88.124;2023-04-28T00:17:54;98393.11;;;15.35;28.60
46642;BME280;32370;41.864;-88.124;2023-04-28T00:20:22;98394.56;;;15.38;28.50
46642;BME280;32370;41.864;-88.124;2023-04-28T00:22:49;98392.91;;;15.08;28.17
46642;BME280;32370;41.864;-88.124;2023-04-28T00:25:18;98388.11;;;14.64;28.72
46642;BME280;32370;41.864;-88.124;2023-04-28T00:27:45;98390.56;;;14.29;29.44
46642;BME280;32370;41.864;-88.124;2023-04-28T00:30:13;98392.00;;;14.74;29.59
46642;BME280;32370;41.864;-88.124;2023-04-28T00:32:41;98396.01;;;14.36;29.34
46642;BME280;32370;41.864;-88.124;2023-04-28T00:35:09;98397.48;;;14.56;29.46
46642;BME280;32370;41.864;-88.124;2023-04-28T00:37:38;98399.53;;;14.02;29.94
46642;BME280;32370;41.864;-88.124;2023-04-28T00:40:07;98399.18;;;14.33;29.97
46642;BME280;32370;41.864;-88.124;2023-04-28T00:42:35;98398.08;;;13.92;30.10
46642;BME280;32370;41.864;-88.124;2023-04-28T00:45:04;98397.08;;;14.40;30.00
46642;BME280;32370;41.864;-88.124;2023-04-28T00:47:32;98390.03;;;13.80;30.72
46642;BME280;32370;41.864;-88.124;2023-04-28T00:50:01;98397.93;;;13.92;30.80
46642;BME280;32370;41.864;-88.124;2023-04-28T00:52:30;98396.83;;;13.66;30.87
46642;BME280;32370;41.864;-88.124;2023-04-28T00:54:59;98399.78;;;13.67;31.25
46642;BME280;32370;41.864;-88.124;2023-04-28T00:57:27;98398.04;;;13.10;31.20
46642;BME280;32370;41.864;-88.124;2023-04-28T00:59:56;98399.38;;;13.67;31.46
46642;BME280;32370;41.864;-88.124;2023-04-28T01:02:25;98400.39;;;13.50;31.54
46642;BME280;32370;41.864;-88.124;2023-04-28T01:04:53;98401.02;;;13.64;32.03
46642;BME280;32370;41.864;-88.124;2023-04-28T01:07:22;98403.07;;;13.61;32.05
46642;BME280;32370;41.864;-88.124;2023-04-28T01:09:50;98408.97;;;13.32;31.41
46642;BME280;32370;41.864;-88.124;2023-04-28T01:12:18;98409.19;;;13.46;31.77
46642;BME280;32370;41.864;-88.124;2023-04-28T01:14:46;98412.38;;;13.60;31.62
46642;BME280;32370;41.864;-88.124;2023-04-28T01:17:14;98413.28;;;13.93;32.45
46642;BME280;32370;41.864;-88.124;2023-04-28T01:19:43;98419.55;;;13.88;32.12
46642;BME280;32370;41.864;-88.124;2023-04-28T01:22:10;98419.64;;;13.58;32.39
46642;BME280;32370;41.864;-88.124;2023-04-28T01:24:38;98419.50;;;13.32;34.23
46642;BME280;32370;41.864;-88.124;2023-04-28T01:27:06;98425.05;;;13.45;32.69
46642;BME280;32370;41.864;-88.124;2023-04-28T01:29:35;98425.73;;;13.01;33.26
46642;BME280;32370;41.864;-88.124;2023-04-28T01:32:03;98430.92;;;13.26;31.91
46642;BME280;32370;41.864;-88.124;2023-04-28T01:34:31;98431.73;;;13.75;31.53
46642;BME280;32370;41.864;-88.124;2023-04-28T01:36:59;98436.11;;;13.21;32.42
46642;BME280;32370;41.864;-88.124;2023-04-28T01:39:27;98441.46;;;12.96;33.14
46642;BME280;32370;41.864;-88.124;2023-04-28T01:41:57;98447.28;;;12.96;33.55
46642;BME280;32370;41.864;-88.124;2023-04-28T01:44:25;98451.90;;;12.80;33.13
46642;BME280;32370;41.864;-88.124;2023-04-28T01:46:54;98453.34;;;13.00;34.40
46642;BME280;32370;41.864;-88.124;2023-04-28T01:49:22;98456.17;;;12.89;33.60
46642;BME280;32370;41.864;-88.124;2023-04-28T01:51:49;98453.60;;;12.75;34.17
46642;BME280;32370;41.864;-88.124;2023-04-28T01:54:17;98454.49;;;12.80;33.98
46642;BME280;32370;41.864;-88.124;2023-04-28T01:56:45;98458.74;;;12.87;33.63
46642;BME280;32370;41.864;-88.124;2023-04-28T01:59:13;98460.39;;;12.55;34.35
46642;BME280;32370;41.864;-88.124;2023-04-28T02:01:42;98462.98;;;12.78;33.74
46642;BME280;32370;41.864;-88.124;2023-04-28T02:04:10;98463.60;;;13.03;33.51
46642;BME280;32370;41.864;-88.124;2023-04-28T02:06:38;98464.47;;;12.65;34.31
46642;BME280;32370;41.864;-88.124;2023-04-28T02:09:06;98469.15;;;12.47;34.98
46642;BME280;32370;41.864;-88.124;2023-04-28T02:11:34;98467.48;;;12.21;34.94
46642;BME280;32370;41.864;-88.124;2023-04-28T02:14:01;98470.95;;;11.81;35.55
46642;BME280;32370;41.864;-88.124;2023-04-28T02:16:29;98472.44;;;12.15;35.56
46642;BME280;32370;41.864;-88.124;2023-04-28T02:18:57;98474.71;;;12.25;35.58
46642;BME280;32370;41.864;-88.124;2023-04-28T02:21:25;98475.21;;;12.47;35.07
46642;BME280;32370;41.864;-88.124;2023-04-28T02:23:53;98476.23;;;11.92;35.22
46642;BME280;32370;41.864;-88.124;2023-04-28T02:26:21;98480.28;;;11.98;35.26
46642;BME280;32370;41.864;-88.124;2023-04-28T02:28:48;98482.36;;;12.08;36.16
46642;BME280;32370;41.864;-88.124;2023-04-28T02:31:16;98481.60;;;11.85;35.81
46642;BME280;32370;41.864;-88.124;2023-04-28T02:33:44;98486.69;;;11.84;36.18
46642;BME280;32370;41.864;-88.124;2023-04-28T02:36:12;98485.58;;;11.84;36.74
46642;BME280;32370;41.864;-88.124;2023-04-28T02:38:40;98488.23;;;12.25;36.42
46642;BME280;32370;41.864;-88.124;2023-04-28T02:41:08;98489.29;;;12.03;36.26
46642;BME280;32370;41.864;-88.124;2023-04-28T02:43:36;98491.87;;;11.99;36.88
46642;BME280;32370;41.864;-88.124;2023-04-28T02:46:05;98491.60;;;11.73;37.23
46642;BME280;32370;41.864;-88.124;2023-04-28T02:48:33;98492.23;;;11.72;38.34
46642;BME280;32370;41.864;-88.124;2023-04-28T02:51:01;98500.02;;;11.21;38.57
46642;BME280;32370;41.864;-88.124;2023-04-28T02:53:29;98499.17;;;10.80;39.07
46642;BME280;32370;41.864;-88.124;2023-04-28T02:55:56;98500.87;;;10.94;38.74
46642;BME280;32370;41.864;-88.124;2023-04-28T02:58:24;98499.76;;;10.76;39.40
46642;BME280;32370;41.864;-88.124;2023-04-28T03:00:53;98495.64;;;10.71;40.32
46642;BME280;32370;41.864;-88.124;2023-04-28T03:03:21;98492.19;;;11.22;39.04
46642;BME280;32370;41.864;-88.124;2023-04-28T03:05:49;98493.16;;;11.67;38.96
46642;BME280;32370;41.864;-88.124;2023-04-28T03:08:16;98489.65;;;10.93;39.22
46642;BME280;32370;41.864;-88.124;2023-04-28T03:10:44;98490.93;;;11.40;39.42
46642;BME280;32370;41.864;-88.124;2023-04-28T03:13:12;98488.54;;;11.22;39.66
46642;BME280;32370;41.864;-88.124;2023-04-28T03:15:40;98490.47;;;11.17;39.30
46642;BME280;32370;41.864;-88.124;2023-04-28T03:18:08;98487.87;;;11.26;39.83
46642;BME280;32370;41.864;-88.124;2023-04-28T03:20:36;98482.19;;;10.81;40.52
46642;BME280;32370;41.864;-88.124;2023-04-28T03:23:03;98484.98;;;11.24;40.26
46642;BME280;32370;41.864;-88.124;2023-04-28T03:25:31;98488.17;;;11.07;40.16
46642;BME280;32370;41.864;-88.124;2023-04-28T03:27:59;98488.47;;;10.73;41.16
46642;BME280;32370;41.864;-88.124;2023-04-28T03:30:27;98490.71;;;10.16;40.95
46642;BME280;32370;41.864;-88.124;2023-04-28T03:32:55;98488.97;;;10.55;41.85
46642;BME280;32370;41.864;-88.124;2023-04-28T03:35:23;98493.54;;;10.66;41.06
46642;BME280;32370;41.864;-88.124;2023-04-28T03:37:51;98489.48;;;10.47;41.71
46642;BME280;32370;41.864;-88.124;2023-04-28T03:40:18;98489.07;;;10.49;41.36
46642;BME280;32370;41.864;-88.124;2023-04-28T03:42:46;98490.37;;;10.51;41.67
46642;BME280;32370;41.864;-88.124;2023-04-28T03:45:14;98490.14;;;10.32;42.56
46642;BME280;32370;41.864;-88.124;2023-04-28T03:47:42;98492.77;;;10.38;41.96
46642;BME280;32370;41.864;-88.124;2023-04-28T03:50:10;98489.38;;;9.95;41.90
46642;BME280;32370;41.864;-88.124;2023-04-28T03:52:38;98486.67;;;10.40;41.99
46642;BME280;32370;41.864;-88.124;2023-04-28T03:55:06;98481.97;;;10.53;42.45
46642;BME280;32370;41.864;-88.124;2023-04-28T03:57:34;98478.89;;;9.96;42.84
46642;BME280;32370;41.864;-88.124;2023-04-28T04:00:02;98478.60;;;10.14;42.52
46642;BME280;32370;41.864;-88.124;2023-04-28T04:02:31;98477.66;;;10.17;42.69
46642;BME280;32370;41.864;-88.124;2023-04-28T04:05:00;98475.03;;;9.60;43.54
46642;BME280;32370;41.864;-88.124;2023-04-28T04:07:27;98468.24;;;9.98;43.14
46642;BME280;32370;41.864;-88.124;2023-04-28T04:09:55;98461.43;;;9.96;43.53
46642;BME280;32370;41.864;-88.124;2023-04-28T04:12:23;98460.36;;;9.82;44.22
46642;BME280;32370;41.864;-88.124;2023-04-28T04:14:51;98449.13;;;9.84;43.95
46642;BME280;32370;41.864;-88.124;2023-04-28T04:17:19;98450.65;;;9.46;44.93
46642;BME280;32370;41.864;-88.124;2023-04-28T04:19:47;98449.41;;;9.38;45.11
46642;BME280;32370;41.864;-88.124;2023-04-28T04:22:15;98448.66;;;9.58;44.80
46642;BME280;32370;41.864;-88.124;2023-04-28T04:24:42;98448.54;;;9.92;44.77
46642;BME280;32370;41.864;-88.124;2023-04-28T04:27:10;98449.34;;;9.75;44.62
46642;BME280;32370;41.864;-88.124;2023-04-28T04:29:38;98451.69;;;9.68;45.43
46642;BME280;32370;41.864;-88.124;2023-04-28T04:32:06;98449.98;;;9.66;45.29
46642;BME280;32370;41.864;-88.124;2023-04-28T04:34:34;98446.72;;;9.70;45.91
46642;BME280;32370;41.864;-88.124;2023-04-28T04:37:02;98442.85;;;9.47;46.40
46642;BME280;32370;41.864;-88.124;2023-04-28T04:39:30;98438.51;;;9.31;46.21
46642;BME280;32370;41.864;-88.124;2023-04-28T04:41:58;98434.51;;;9.47;46.46
46642;BME280;32370;41.864;-88.124;2023-04-28T04:44:25;98433.42;;;9.43;46.21
46642;BME280;32370;41.864;-88.124;2023-04-28T04:46:53;98428.18;;;9.70;46.51
46642;BME280;32370;41.864;-88.124;2023-04-28T04:49:21;98425.16;;;9.77;46.02
46642;BME280;32370;41.864;-88.124;2023-04-28T04:51:49;98422.74;;;9.26;46.73
46642;BME280;32370;41.864;-88.124;2023-04-28T04:54:17;98421.13;;;9.73;46.69
46642;BME280;32370;41.864;-88.124;2023-04-28T04:56:45;98419.72;;;9.99;46.56
46642;BME280;32370;41.864;-88.124;2023-04-28T04:59:13;98417.67;;;9.38;46.93
46642;BME280;32370;41.864;-88.124;2023-04-28T05:01:41;98415.07;;;9.67;47.33
46642;BME280;32370;41.864;-88.124;2023-04-28T05:04:09;98409.78;;;9.09;47.56
46642;BME280;32370;41.864;-88.124;2023-04-28T05:06:37;98402.87;;;9.50;47.93
46642;BME280;32370;41.864;-88.124;2023-04-28T05:09:05;98401.36;;;9.38;48.37
46642;BME280;32370;41.864;-88.124;2023-04-28T05:11:33;98399.17;;;9.57;47.84
46642;BME280;32370;41.864;-88.124;2023-04-28T05:14:01;98394.81;;;8.93;49.08
46642;BME280;32370;41.864;-88.124;2023-04-28T05:16:29;98389.46;;;8.74;48.98
46642;BME280;32370;41.864;-88.124;2023-04-28T05:18:57;98389.24;;;8.42;49.23
46642;BME280;32370;41.864;-88.124;2023-04-28T05:21:24;98383.91;;;8.95;49.20
46642;BME280;32370;41.864;-88.124;2023-04-28T05:23:52;98383.70;;;8.02;50.59
46642;BME280;32370;41.864;-88.124;2023-04-28T05:26:20;98387.30;;;8.53;50.39
46642;BME280;32370;41.864;-88.124;2023-04-28T05:28:49;98385.09;;;8.47;50.61
46642;BME280;32370;41.864;-88.124;2023-04-28T05:31:17;98377.82;;;8.70;49.80
46642;BME280;32370;41.864;-88.124;2023-04-28T05:33:45;98374.43;;;8.76;50.12
46642;BME280;32370;41.864;-88.124;2023-04-28T05:36:13;98376.66;;;8.49;50.74
46642;BME280;32370;41.864;-88.124;2023-04-28T05:38:41;98375.56;;;8.16;52.77
46642;BME280;32370;41.864;-88.124;2023-04-28T05:41:09;98378.93;;;8.57;50.93
46642;BME280;32370;41.864;-88.124;2023-04-28T05:43:37;98380.35;;;8.37;51.58
46642;BME280;32370;41.864;-88.124;2023-04-28T05:46:05;98370.88;;;8.07;51.50
46642;BME280;32370;41.864;-88.124;2023-04-28T05:48:33;98370.02;;;8.31;51.26
46642;BME280;32370;41.864;-88.124;2023-04-28T05:51:01;98368.98;;;8.59;50.96
46642;BME280;32370;41.864;-88.124;2023-04-28T05:53:29;98361.73;;;8.31;52.08
46642;BME280;32370;41.864;-88.124;2023-04-28T05:55:57;98357.59;;;8.64;51.03
46642;BME280;32370;41.864;-88.124;2023-04-28T05:58:25;98360.81;;;8.31;51.67
46642;BME280;32370;41.864;-88.124;2023-04-28T06:00:52;98363.89;;;8.00;51.91
46642;BME280;32370;41.864;-88.124;2023-04-28T06:03:20;98360.31;;;8.24;52.27
46642;BME280;32370;41.864;-88.124;2023-04-28T06:05:48;98358.31;;;8.36;51.70
46642;BME280;32370;41.864;-88.124;2023-04-28T06:08:16;98356.40;;;8.54;51.20
46642;BME280;32370;41.864;-88.124;2023-04-28T06:10:44;98352.46;;;8.52;51.50
46642;BME280;32370;41.864;-88.124;2023-04-28T06:13:12;98352.12;;;8.30;51.65
46642;BME280;32370;41.864;-88.124;2023-04-28T06:15:40;98352.12;;;8.45;51.47
46642;BME280;32370;41.864;-88.124;2023-04-28T06:18:07;98351.68;;;8.53;51.25
46642;BME280;32370;41.864;-88.124;2023-04-28T06:20:36;98350.50;;;8.17;52.40
46642;BME280;32370;41.864;-88.124;2023-04-28T06:23:03;98348.93;;;8.11;52.24
46642;BME280;32370;41.864;-88.124;2023-04-28T06:25:31;98345.04;;;8.07;52.42
46642;BME280;32370;41.864;-88.124;2023-04-28T06:27:59;98344.55;;;8.15;52.03
46642;BME280;32370;41.864;-88.124;2023-04-28T06:30:27;98343.23;;;8.31;51.88
46642;BME280;32370;41.864;-88.124;2023-04-28T06:32:55;98341.88;;;8.28;51.89
46642;BME280;32370;41.864;-88.124;2023-04-28T06:35:23;98340.01;;;8.09;52.35
46642;BME280;32370;41.864;-88.124;2023-04-28T06:37:51;98339.91;;;8.03;52.83
46642;BME280;32370;41.864;-88.124;2023-04-28T06:40:19;98337.17;;;7.93;52.87
46642;BME280;32370;41.864;-88.124;2023-04-28T06:42:46;98336.63;;;7.83;53.31
46642;BME280;32370;41.864;-88.124;2023-04-28T06:45:14;98344.74;;;7.34;54.02
46642;BME280;32370;41.864;-88.124;2023-04-28T06:47:42;98339.20;;;7.61;53.68
46642;BME280;32370;41.864;-88.124;2023-04-28T06:50:10;98336.24;;;7.54;54.02
46642;BME280;32370;41.864;-88.124;2023-04-28T06:52:38;98334.61;;;7.53;53.29
46642;BME280;32370;41.864;-88.124;2023-04-28T06:55:07;98334.95;;;7.72;53.25
46642;BME280;32370;41.864;-88.124;2023-04-28T06:57:35;98329.36;;;7.56;53.42
46642;BME280;32370;41.864;-88.124;2023-04-28T07:00:03;98331.22;;;7.34;53.97
46642;BME280;32370;41.864;-88.124;2023-04-28T07:02:31;98324.57;;;7.04;55.25
46642;BME280;32370;41.864;-88.124;2023-04-28T07:04:59;98315.53;;;7.10;54.99
46642;BME280;32370;41.864;-88.124;2023-04-28T07:07:28;98313.39;;;7.47;54.77
46642;BME280;32370;41.864;-88.124;2023-04-28T07:09:56;98309.44;;;6.57;57.36
46642;BME280;32370;41.864;-88.124;2023-04-28T07:12:24;98309.82;;;6.06;58.80
46642;BME280;32370;41.864;-88.124;2023-04-28T07:14:52;98313.13;;;6.09;58.62
46642;BME280;32370;41.864;-88.124;2023-04-28T07:17:20;98310.18;;;6.28;58.11
46642;BME280;32370;41.864;-88.124;2023-04-28T07:19:48;98307.36;;;6.65;57.81
46642;BME280;32370;41.864;-88.124;2023-04-28T07:22:21;98304.78;;;7.11;57.05
46642;BME280;32370;41.864;-88.124;2023-04-28T07:24:48;98302.73;;;6.95;56.77
46642;BME280;32370;41.864;-88.124;2023-04-28T07:27:16;98299.84;;;6.57;58.65
46642;BME280;32370;41.864;-88.124;2023-04-28T07:29:44;98299.47;;;5.89;60.79
46642;BME280;32370;41.864;-88.124;2023-04-28T07:32:12;98301.93;;;6.23;60.20
46642;BME280;32370;41.864;-88.124;2023-04-28T07:34:40;98297.17;;;6.09;59.76
46642;BME280;32370;41.864;-88.124;2023-04-28T07:37:08;98297.59;;;6.64;58.72
46642;BME280;32370;41.864;-88.124;2023-04-28T07:39:36;98297.87;;;6.61;58.78
46642;BME280;32370;41.864;-88.124;2023-04-28T07:42:04;98292.09;;;6.44;59.22
46642;BME280;32370;41.864;-88.124;2023-04-28T07:44:32;98289.57;;;6.18;60.28
46642;BME280;32370;41.864;-88.124;2023-04-28T07:47:00;98291.24;;;6.16;61.70
46642;BME280;32370;41.864;-88.124;2023-04-28T07:49:29;98286.00;;;5.38;65.46
46642;BME280;32370;41.864;-88.124;2023-04-28T07:51:57;98288.37;;;5.18;67.95
46642;BME280;32370;41.864;-88.124;2023-04-28T07:54:25;98291.54;;;5.40;67.76
46642;BME280;32370;41.864;-88.124;2023-04-28T07:56:54;98297.64;;;5.75;67.77
46642;BME280;32370;41.864;-88.124;2023-04-28T07:59:23;98296.39;;;6.18;66.31
46642;BME280;32370;41.864;-88.124;2023-04-28T08:01:51;98299.05;;;6.53;64.75
46642;BME280;32370;41.864;-88.124;2023-04-28T08:04:18;98293.86;;;6.30;65.03
46642;BME280;32370;41.864;-88.124;2023-04-28T08:06:46;98294.31;;;6.26;65.03
46642;BME280;32370;41.864;-88.124;2023-04-28T08:09:15;98293.61;;;6.56;63.90
46642;BME280;32370;41.864;-88.124;2023-04-28T08:11:42;98288.86;;;6.28;63.88
46642;BME280;32370;41.864;-88.124;2023-04-28T08:14:10;98289.58;;;6.32;65.18
46642;BME280;32370;41.864;-88.124;2023-04-28T08:16:38;98287.63;;;6.57;64.45
46642;BME280;32370;41.864;-88.124;2023-04-28T08:19:06;98284.04;;;6.81;63.53
46642;BME280;32370;41.864;-88.124;2023-04-28T08:21:34;98282.29;;;7.05;62.63
46642;BME280;32370;41.864;-88.124;2023-04-28T08:24:02;98278.86;;;6.75;62.29
46642;BME280;32370;41.864;-88.124;2023-04-28T08:26:30;98280.61;;;7.13;61.91
46642;BME280;32370;41.864;-88.124;2023-04-28T08:28:58;98276.73;;;6.96;61.35
46642;BME280;32370;41.864;-88.124;2023-04-28T08:31:26;98272.51;;;7.24;61.29
46642;BME280;32370;41.864;-88.124;2023-04-28T08:33:53;98266.56;;;7.45;60.58
46642;BME280;32370;41.864;-88.124;2023-04-28T08:36:21;98262.66;;;7.66;60.10
46642;BME280;32370;41.864;-88.124;2023-04-28T08:38:49;98261.52;;;7.63;59.72
46642;BME280;32370;41.864;-88.124;2023-04-28T08:41:17;98258.22;;;7.68;59.44
46642;BME280;32370;41.864;-88.124;2023-04-28T08:43:45;98263.18;;;7.80;58.99
46642;BME280;32370;41.864;-88.124;2023-04-28T08:46:14;98256.37;;;7.57;59.34
46642;BME280;32370;41.864;-88.124;2023-04-28T08:48:43;98255.36;;;7.01;59.60
46642;BME280;32370;41.864;-88.124;2023-04-28T08:51:14;98252.48;;;7.45;59.94
46642;BME280;32370;41.864;-88.124;2023-04-28T08:53:45;98248.49;;;7.17;59.98
46642;BME280;32370;41.864;-88.124;2023-04-28T08:56:17;98242.56;;;7.14;60.27
46642;BME280;32370;41.864;-88.124;2023-04-28T08:58:45;98241.84;;;7.50;60.17
46642;BME280;32370;41.864;-88.124;2023-04-28T09:01:13;98240.33;;;7.55;60.06
46642;BME280;32370;41.864;-88.124;2023-04-28T09:03:42;98239.62;;;7.17;60.15
46642;BME280;32370;41.864;-88.124;2023-04-28T09:06:09;98238.75;;;7.30;60.33
46642;BME280;32370;41.864;-88.124;2023-04-28T09:08:37;98235.95;;;7.48;60.06
46642;BME280;32370;41.864;-88.124;2023-04-28T09:11:07;98234.08;;;7.19;60.47
46642;BME280;32370;41.864;-88.124;2023-04-28T09:13:35;98235.48;;;7.06;60.77
46642;BME280;32370;41.864;-88.124;2023-04-28T09:16:04;98235.01;;;6.85;61.12
46642;BME280;32370;41.864;-88.124;2023-04-28T09:18:33;98232.29;;;6.91;60.93
46642;BME280;32370;41.864;-88.124;2023-04-28T09:21:05;98226.95;;;6.34;61.37
46642;BME280;32370;41.864;-88.124;2023-04-28T09:23:34;98225.07;;;6.65;61.44
46642;BME280;32370;41.864;-88.124;2023-04-28T09:26:13;98227.75;;;6.56;61.48
46642;BME280;32370;41.864;-88.124;2023-04-28T09:28:40;98228.73;;;6.20;61.62
46642;BME280;32370;41.864;-88.124;2023-04-28T09:31:22;98233.08;;;6.54;62.00
46642;BME280;32370;41.864;-88.124;2023-04-28T09:33:57;98231.01;;;6.20;62.34
46642;BME280;32370;41.864;-88.124;2023-04-28T09:36:27;98230.83;;;6.37;62.28
46642;BME280;32370;41.864;-88.124;2023-04-28T09:38:57;98239.68;;;5.99;63.96
46642;BME280;32370;41.864;-88.124;2023-04-28T09:41:35;98230.21;;;5.56;65.59
46642;BME280;32370;41.864;-88.124;2023-04-28T09:44:12;98227.72;;;5.59;65.58
46642;BME280;32370;41.864;-88.124;2023-04-28T09:46:41;98219.87;;;5.02;69.07
46642;BME280;32370;41.864;-88.124;2023-04-28T09:49:09;98219.45;;;4.40;73.95
46642;BME280;32370;41.864;-88.124;2023-04-28T09:51:37;98218.23;;;3.98;76.46
46642;BME280;32370;41.864;-88.124;2023-04-28T09:54:05;98215.17;;;3.91;76.70
46642;BME280;32370;41.864;-88.124;2023-04-28T09:56:34;98213.67;;;4.25;76.79
46642;BME280;32370;41.864;-88.124;2023-04-28T09:59:02;98216.61;;;5.09;74.39
46642;BME280;32370;41.864;-88.124;2023-04-28T10:01:36;98225.65;;;4.88;73.12
46642;BME280;32370;41.864;-88.124;2023-04-28T10:04:04;98230.33;;;4.79;73.32
46642;BME280;32370;41.864;-88.124;2023-04-28T10:06:34;98232.71;;;5.20;72.44
46642;BME280;32370;41.864;-88.124;2023-04-28T10:09:02;98237.87;;;5.19;72.43
46642;BME280;32370;41.864;-88.124;2023-04-28T10:11:32;98239.79;;;4.95;73.08
46642;BME280;32370;41.864;-88.124;2023-04-28T10:13:59;98245.49;;;4.87;74.33
46642;BME280;32370;41.864;-88.124;2023-04-28T10:16:30;98246.76;;;4.43;75.34
46642;BME280;32370;41.864;-88.124;2023-04-28T10:18:59;98247.62;;;4.71;75.62
46642;BME280;32370;41.864;-88.124;2023-04-28T10:21:28;98245.51;;;5.38;74.04
46642;BME280;32370;41.864;-88.124;2023-04-28T10:24:10;98250.23;;;5.80;72.24
46642;BME280;32370;41.864;-88.124;2023-04-28T10:27:13;98245.15;;;6.12;71.52
46642;BME280;32370;41.864;-88.124;2023-04-28T10:29:42;98247.24;;;5.92;70.82
46642;BME280;32370;41.864;-88.124;2023-04-28T10:32:25;98246.00;;;5.55;70.24
46642;BME280;32370;41.864;-88.124;2023-04-28T10:35:40;98245.08;;;6.25;69.64
46642;BME280;32370;41.864;-88.124;2023-04-28T10:38:09;98242.42;;;6.02;69.99
46642;BME280;32370;41.864;-88.124;2023-04-28T10:40:39;98241.69;;;6.10;69.95
46642;BME280;32370;41.864;-88.124;2023-04-28T10:43:08;98244.49;;;5.95;70.44
46642;BME280;32370;41.864;-88.124;2023-04-28T10:46:08;98242.19;;;5.17;71.14
46642;BME280;32370;41.864;-88.124;2023-04-28T10:48:53;98242.78;;;5.28;72.63
46642;BME280;32370;41.864;-88.124;2023-04-28T10:51:25;98243.97;;;4.98;74.03
46642;BME280;32370;41.864;-88.124;2023-04-28T10:54:14;98246.47;;;4.93;73.70
46642;BME280;32370;41.864;-88.124;2023-04-28T10:57:14;98246.38;;;5.41;72.88
46642;BME280;32370;41.864;-88.124;2023-04-28T10:59:42;98255.23;;;5.58;71.23
46642;BME280;32370;41.864;-88.124;2023-04-28T11:02:42;98256.88;;;6.54;70.44
46642;BME280;32370;41.864;-88.124;2023-04-28T11:05:13;98256.58;;;5.79;69.53
46642;BME280;32370;41.864;-88.124;2023-04-28T11:08:30;98256.73;;;5.66;70.36
46642;BME280;32370;41.864;-88.124;2023-04-28T11:11:24;98260.85;;;6.19;70.09
46642;BME280;32370;41.864;-88.124;2023-04-28T11:13:54;98260.92;;;5.71;71.01
46642;BME280;32370;41.864;-88.124;2023-04-28T11:16:23;98266.66;;;5.57;72.56
46642;BME280;32370;41.864;-88.124;2023-04-28T11:18:54;98270.77;;;5.79;72.01
46642;BME280;32370;41.864;-88.124;2023-04-28T11:21:23;98273.66;;;5.65;71.59
46642;BME280;32370;41.864;-88.124;2023-04-28T11:23:52;98278.42;;;6.16;70.72
46642;BME280;32370;41.864;-88.124;2023-04-28T11:26:20;98282.51;;;6.28;70.33
46642;BME280;32370;41.864;-88.124;2023-04-28T11:28:49;98284.71;;;6.23;70.73
46642;BME280;32370;41.864;-88.124;2023-04-28T11:31:19;98289.08;;;5.95;70.16
46642;BME280;32370;41.864;-88.124;2023-04-28T11:33:50;98291.75;;;6.10;69.82
46642;BME280;32370;41.864;-88.124;2023-04-28T11:36:24;98292.85;;;5.83;71.01
46642;BME280;32370;41.864;-88.124;2023-04-28T11:38:52;98294.92;;;5.36;73.63
46642;BME280;32370;41.864;-88.124;2023-04-28T11:41:20;98296.46;;;5.06;74.58
46642;BME280;32370;41.864;-88.124;2023-04-28T11:43:48;98298.07;;;5.25;73.96
46642;BME280;32370;41.864;-88.124;2023-04-28T11:46:17;98299.13;;;6.10;73.12
46642;BME280;32370;41.864;-88.124;2023-04-28T11:48:46;98299.83;;;6.07;71.53
46642;BME280;32370;41.864;-88.124;2023-04-28T11:51:31;98305.39;;;6.29;70.64
46642;BME280;32370;41.864;-88.124;2023-04-28T11:53:59;98304.27;;;6.62;69.32
46642;BME280;32370;41.864;-88.124;2023-04-28T11:56:28;98305.94;;;6.83;68.70
46642;BME280;32370;41.864;-88.124;2023-04-28T11:59:01;98307.71;;;7.14;67.88
46642;BME280;32370;41.864;-88.124;2023-04-28T12:01:28;98309.47;;;7.21;67.43
46642;BME280;32370;41.864;-88.124;2023-04-28T12:03:56;98312.86;;;7.29;67.12
46642;BME280;32370;41.864;-88.124;2023-04-28T12:06:24;98312.04;;;6.91;67.58
46642;BME280;32370;41.864;-88.124;2023-04-28T12:08:52;98311.83;;;7.34;67.51
46642;BME280;32370;41.864;-88.124;2023-04-28T12:11:21;98316.10;;;7.38;67.19
46642;BME280;32370;41.864;-88.124;2023-04-28T12:14:04;98316.30;;;7.04;66.72
46642;BME280;32370;41.864;-88.124;2023-04-28T12:16:42;98320.56;;;6.72;66.43
46642;BME280;32370;41.864;-88.124;2023-04-28T12:19:10;98325.04;;;6.65;67.14
46642;BME280;32370;41.864;-88.124;2023-04-28T12:21:39;98327.79;;;6.69;67.83
46642;BME280;32370;41.864;-88.124;2023-04-28T12:24:23;98332.91;;;7.58;65.74
46642;BME280;32370;41.864;-88.124;2023-04-28T12:26:51;98333.77;;;7.53;65.71
46642;BME280;32370;41.864;-88.124;2023-04-28T12:29:37;98334.56;;;7.57;65.22
46642;BME280;32370;41.864;-88.124;2023-04-28T12:32:06;98332.40;;;7.69;64.77
46642;BME280;32370;41.864;-88.124;2023-04-28T12:34:34;98334.45;;;7.75;64.60
46642;BME280;32370;41.864;-88.124;2023-04-28T12:37:03;98332.81;;;7.08;67.71
46642;BME280;32370;41.864;-88.124;2023-04-28T12:39:32;98336.42;;;7.48;66.15
46642;BME280;32370;41.864;-88.124;2023-04-28T12:42:01;98335.69;;;7.16;67.12
46642;BME280;32370;41.864;-88.124;2023-04-28T12:44:31;98333.55;;;8.07;64.14
46642;BME280;32370;41.864;-88.124;2023-04-28T12:47:01;98338.07;;;8.33;63.38
46642;BME280;32370;41.864;-88.124;2023-04-28T12:49:29;98336.99;;;8.64;61.70
46642;BME280;32370;41.864;-88.124;2023-04-28T12:51:56;98335.46;;;8.60;61.94
46642;BME280;32370;41.864;-88.124;2023-04-28T12:54:24;98332.92;;;8.88;61.31
46642;BME280;32370;41.864;-88.124;2023-04-28T12:56:52;98330.59;;;8.68;62.42
46642;BME280;32370;41.864;-88.124;2023-04-28T12:59:20;98326.41;;;8.85;61.99